메인 페이지
METAR-TAF:

METAR-TAF

공항 :

돈므앙 국제공항

방콕, 타이

위도: 13-54-45N, 경도: 100-36-24E, 고도: 4m

현재 날씨관측

예보는 40분 전, 16:00시(UTC)에 발표되었습니다.
남남서7kt
온도 29°C
습도 79%
기압 1012 hPa
시정 10km 이상
고도 2000ft 상공 구름 조금

METAR: VTBD 311600Z 21007KT 9999 FEW020 29/25 Q1012 NOSIG

시각: 23:40 (16:40 UTC)

예보

예보는 5 시간 40분 전, 11:00시(UTC)에 발표되었습니다.
예보 대상 시간: 31일 12시부터 01일 18시까지 (UTC)
8kt
시정 10km 이상
고도 2000ft 상공 구름 조금
고도 10000ft 상공 구름 보통
일시적
31일 12시부터 31일 15시까지 (UTC)
여러 방향의 바람 15kt
시정: 5000m
고도 1800ft 상공 구름 조금, 적란운.
고도 3500ft 상공 구름 보통
고도 9000ft 상공 구름 많음
뇌우, 비
일시적
01일 08시부터 01일 12시까지 (UTC)
여러 방향의 바람 15kt
시정: 4000m
고도 1800ft 상공 구름 조금, 적란운.
고도 3500ft 상공 구름 보통
고도 9000ft 상공 구름 많음
뇌우, 비

TAF: VTBD 311100Z 3112/0118 18008KT 9999 FEW020 SCT100 TEMPO 3112/3115 VRB15KT 5000 TSRA FEW018CB SCT035 BKN090 TEMPO 0108/0112 VRB15KT 4000 TSRA FEW018CB SCT035 BKN090

4,000개 이상의 공항 관측 자료 및 예보 (METAR 및 TAF 보고).

지도상에서 검색 가능한 기상관측소가 노란 점과 빨간 점으로 표시되어 있습니다.

기상관측소 명을 보려면 표시 위로 마우스를 이동하세요.

날씨 관측과 예보를 보려면 클릭하세요.

지도 변경 : 확대하려면 엑스 표시가 있는 녹색 버튼, 축소하려면 빼기 표시가 있는 녹색 버튼, 다음 페이지의 지도를 보려면 녹색 화살표를 클릭하세요.


METAR-TAF: